This is the latest recevied weather packets stored in our database for station/object IW1RID-3. If no packets are shown the sender has not sent any weather packets the latest 10 day(s).
| Time | Temp. | Humidity | Pressure | Rain* | Wind** | Luminosity | Snow |
|---|---|---|---|---|---|---|---|
| 1777580810 | 15.56° C | 58% | 1079.4 hPa | - | - | - | - |
| 1777579606 | 16.11° C | 57% | 1079.1 hPa | - | - | - | - |
| 1777578400 | 16.67° C | 56% | 1079 hPa | - | - | - | - |
| 1777577195 | 17.22° C | 54% | 1078.9 hPa | - | - | - | - |
| 1777575989 | 18.33° C | 49% | 1078.4 hPa | - | - | - | - |
| 1777574784 | 19.44° C | 44% | 1078 hPa | - | - | - | - |
| 1777574610 | 19.44° C | 44% | 1078.2 hPa | - | - | - | - |
| 1777573404 | 20.56° C | 39% | 1078 hPa | - | - | - | - |
| 1777572200 | 21.11° C | 37% | 1077.8 hPa | - | - | - | - |
| 1777570995 | 21.67° C | 33% | 1077.6 hPa | - | - | - | - |
| 1777569790 | 22.22° C | 33% | 1077.3 hPa | - | - | - | - |
| 1777568585 | 22.22° C | 33% | 1077.2 hPa | - | - | - | - |
| 1777567380 | 22.22° C | 31% | 1077.2 hPa | - | - | - | - |
| 1777566175 | 22.22° C | 34% | 1077.1 hPa | - | - | - | - |
| 1777564970 | 22.22° C | 35% | 1077 hPa | - | - | - | - |
| 1777563764 | 22.78° C | 36% | 1076.9 hPa | - | - | - | - |
| 1777562559 | 23.33° C | 35% | 1077.2 hPa | - | - | - | - |
| 1777560149 | 22.78° C | 37% | 1076.6 hPa | - | - | - | - |
| 1777558944 | 23.89° C | 34% | 1076.6 hPa | - | - | - | - |
| 1777557739 | 23.89° C | 35% | 1077 hPa | - | - | - | - |
| 1777556534 | 23.33° C | 37% | 1076.8 hPa | - | - | - | - |
| 1777555329 | 25° C | 36% | 1076.8 hPa | - | - | - | - |
| 1777554124 | 24.44° C | 38% | 1076.9 hPa | - | - | - | - |
| 1777552919 | 23.33° C | 40% | 1077.1 hPa | - | - | - | - |
| 1777551715 | 23.33° C | 41% | 1077 hPa | - | - | - | - |
* Rain since midnight (hover to see other rain measurements)
** Current wind speed in m/s (hover to see current wind gust speed)